createdAt,value
2019-05-05T00:01:35.260Z,93.27
2019-05-05T00:04:41.639Z,93.31
2019-05-05T00:07:12.195Z,93.14
2019-05-05T00:09:41.507Z,92.90
2019-05-05T00:12:25.081Z,92.70
2019-05-05T00:15:05.277Z,92.66
2019-05-05T00:17:34.767Z,92.55
2019-05-05T00:20:05.227Z,92.65
2019-05-05T00:22:35.055Z,92.78
2019-05-05T00:25:05.146Z,92.81
2019-05-05T00:27:34.723Z,92.65
2019-05-05T00:30:05.395Z,92.86
2019-05-05T00:32:35.235Z,92.63
2019-05-05T00:35:04.678Z,92.70
2019-05-05T00:37:34.607Z,92.82
2019-05-05T00:40:05.057Z,93.16
2019-05-05T00:42:35.186Z,93.40
2019-05-05T00:45:05.568Z,93.35
2019-05-05T00:47:44.951Z,93.21
2019-05-05T00:50:17.431Z,93.09
2019-05-05T00:52:46.791Z,93.21
2019-05-05T00:55:16.314Z,93.34
2019-05-05T00:57:45.772Z,93.45
2019-05-05T01:00:34.949Z,93.42
2019-05-05T01:03:04.816Z,93.22
2019-05-05T01:05:49.059Z,93.24
2019-05-05T01:08:21.762Z,93.54
2019-05-05T01:10:51.077Z,93.47
2019-05-05T01:13:20.436Z,93.47
2019-05-05T01:15:49.858Z,93.52
2019-05-05T01:18:19.187Z,93.62
2019-05-05T01:20:48.570Z,93.52
2019-05-05T01:23:18.148Z,93.43
2019-05-05T01:25:48.760Z,93.61
2019-05-05T01:28:18.249Z,93.79
2019-05-05T01:30:50.612Z,93.57
2019-05-05T01:33:31.746Z,93.71
2019-05-05T01:36:01.130Z,93.68
2019-05-05T01:38:45.163Z,93.73
2019-05-05T01:41:27.446Z,93.77
2019-05-05T01:43:56.824Z,93.66
2019-05-05T01:46:26.097Z,93.52
2019-05-05T01:48:55.552Z,93.62
2019-05-05T01:51:25.002Z,93.75
2019-05-05T01:53:54.649Z,94.22
2019-05-05T01:56:24.762Z,94.19
2019-05-05T01:58:54.820Z,94.04
2019-05-05T02:01:24.751Z,93.88
2019-05-05T02:03:54.933Z,93.83
2019-05-05T02:06:24.868Z,94.00
2019-05-05T02:08:54.963Z,93.84
2019-05-05T02:11:24.872Z,93.62
2019-05-05T02:13:54.660Z,93.63
2019-05-05T02:16:25.342Z,93.92
2019-05-05T02:18:55.140Z,94.08
2019-05-05T02:21:24.910Z,93.85
2019-05-05T02:23:54.889Z,93.83
2019-05-05T02:26:24.603Z,93.81
2019-05-05T02:29:18.723Z,93.96
2019-05-05T02:32:25.895Z,93.96
2019-05-05T02:34:58.120Z,93.90
2019-05-05T02:37:27.760Z,93.88
2019-05-05T02:40:02.701Z,93.91
2019-05-05T02:42:29.155Z,93.78
2019-05-05T02:45:01.441Z,93.78
2019-05-05T02:47:55.472Z,93.87
2019-05-05T02:50:28.541Z,94.07
2019-05-05T02:53:01.190Z,94.01
2019-05-05T02:55:32.844Z,94.72
2019-05-05T02:58:03.838Z,94.49
2019-05-05T03:00:50.644Z,94.49
2019-05-05T03:03:20.243Z,94.36
2019-05-05T03:05:50.204Z,94.30
2019-05-05T03:08:19.577Z,94.39
2019-05-05T03:10:49.582Z,94.38
2019-05-05T03:13:21.208Z,94.41
2019-05-05T03:16:03.746Z,94.45
2019-05-05T03:18:33.853Z,94.36
2019-05-05T03:21:07.136Z,94.40
2019-05-05T03:23:34.559Z,94.33
2019-05-05T03:26:04.356Z,94.41
2019-05-05T03:28:47.256Z,94.32
2019-05-05T03:31:17.107Z,94.41
2019-05-05T03:33:46.682Z,94.53
2019-05-05T03:36:16.064Z,94.73
2019-05-05T03:38:46.184Z,94.97
2019-05-05T03:41:23.965Z,95.25
2019-05-05T03:44:06.703Z,95.41
2019-05-05T03:46:36.843Z,95.68
2019-05-05T03:49:06.727Z,95.87
2019-05-05T03:51:36.128Z,96.58
2019-05-05T03:54:05.983Z,97.47
2019-05-05T03:56:35.742Z,98.17
2019-05-05T03:59:05.164Z,98.52
2019-05-05T04:01:44.063Z,98.62
2019-05-05T04:04:24.450Z,97.74
2019-05-05T04:06:54.168Z,96.09
2019-05-05T04:09:24.370Z,91.95
2019-05-05T04:11:54.015Z,90.86
2019-05-05T04:14:25.022Z,89.95
2019-05-05T04:17:08.626Z,89.75
2019-05-05T04:19:39.919Z,89.23
2019-05-05T04:22:09.502Z,88.93
2019-05-05T04:24:38.743Z,88.43
2019-05-05T04:27:08.076Z,89.20
2019-05-05T04:29:37.549Z,88.99
2019-05-05T04:32:06.842Z,88.01
2019-05-05T04:34:36.177Z,88.41
2019-05-05T04:37:05.726Z,88.87
2019-05-05T04:39:34.970Z,88.55
2019-05-05T04:42:04.866Z,88.23
2019-05-05T04:44:34.855Z,86.64
2019-05-05T04:47:11.638Z,87.11
2019-05-05T04:49:47.204Z,87.25
2019-05-05T04:52:17.350Z,86.12
2019-05-05T04:54:51.944Z,87.18
2019-05-05T04:57:21.448Z,87.32
2019-05-05T04:59:54.043Z,87.25
2019-05-05T05:02:48.838Z,87.08
2019-05-05T05:05:28.314Z,86.69
2019-05-05T05:07:58.171Z,85.52
2019-05-05T05:10:27.579Z,84.39
2019-05-05T05:12:56.886Z,83.34
2019-05-05T05:15:26.241Z,82.42
2019-05-05T05:18:05.406Z,80.98
2019-05-05T05:20:34.879Z,80.92
2019-05-05T05:23:04.184Z,79.67
2019-05-05T05:25:34.662Z,79.61
2019-05-05T05:28:04.433Z,78.38
2019-05-05T05:30:34.661Z,78.21
2019-05-05T05:33:04.454Z,75.97
2019-05-05T05:35:34.016Z,74.04
2019-05-05T05:38:04.659Z,70.55
2019-05-05T05:40:53.643Z,66.41
2019-05-05T05:43:29.973Z,61.28
2019-05-05T05:46:18.648Z,56.55
2019-05-05T05:49:24.850Z,50.34
2019-05-05T05:51:54.247Z,44.92
2019-05-05T05:54:23.614Z,40.82
2019-05-05T05:56:53.794Z,39.84
2019-05-05T05:59:24.701Z,36.46
2019-05-05T06:02:08.429Z,35.93
2019-05-05T06:04:25.351Z,34.41
2019-05-05T06:06:54.688Z,33.32
2019-05-05T06:09:24.034Z,31.23
2019-05-05T06:11:54.207Z,33.11
2019-05-05T06:14:24.715Z,31.03
2019-05-05T06:16:54.253Z,32.24
2019-05-05T06:19:24.627Z,29.74
2019-05-05T06:21:54.360Z,30.05
2019-05-05T06:24:24.098Z,30.20
2019-05-05T06:26:54.742Z,28.83
2019-05-05T06:29:24.166Z,29.45
2019-05-05T06:31:53.960Z,32.41
2019-05-05T06:34:24.460Z,33.17
2019-05-05T06:36:53.861Z,30.26
2019-05-05T06:39:24.188Z,32.37
2019-05-05T06:42:05.768Z,34.13
2019-05-05T06:44:47.939Z,35.04
2019-05-05T06:47:20.200Z,35.84
2019-05-05T06:49:49.750Z,35.27
2019-05-05T06:52:19.053Z,35.93
2019-05-05T06:54:48.398Z,36.38
2019-05-05T06:57:17.901Z,37.50
2019-05-05T06:59:47.212Z,36.70
2019-05-05T07:02:16.525Z,36.84
2019-05-05T07:04:46.043Z,38.60
2019-05-05T07:07:15.499Z,38.86
2019-05-05T07:09:44.835Z,39.61
2019-05-05T07:12:14.464Z,42.24
2019-05-05T07:14:44.537Z,42.38
2019-05-05T07:17:14.296Z,42.37
2019-05-05T07:19:44.961Z,36.40
2019-05-05T07:22:17.594Z,31.84
2019-05-05T07:24:45.710Z,31.84
2019-05-05T07:27:14.960Z,29.94
2019-05-05T07:29:44.283Z,30.42
2019-05-05T07:32:14.295Z,28.80
2019-05-05T07:35:05.417Z,30.98
2019-05-05T07:37:34.831Z,27.94
2019-05-05T07:40:04.742Z,28.91
2019-05-05T07:42:34.109Z,28.96
2019-05-05T07:45:08.378Z,27.30
2019-05-05T07:47:34.722Z,26.21
2019-05-05T07:50:04.384Z,25.26
2019-05-05T07:52:34.359Z,24.26
2019-05-05T07:55:03.796Z,25.50
2019-05-05T07:57:34.184Z,25.57
2019-05-05T08:00:05.456Z,24.61
2019-05-05T08:02:34.933Z,23.69
2019-05-05T08:05:04.781Z,23.15
2019-05-05T08:07:34.174Z,21.84
2019-05-05T08:10:04.581Z,22.67
2019-05-05T08:12:34.241Z,21.77
2019-05-05T08:15:04.319Z,21.97
2019-05-05T08:18:11.000Z,24.70
2019-05-05T08:20:44.357Z,24.35
2019-05-05T08:23:38.300Z,22.99
2019-05-05T08:26:34.625Z,22.21
2019-05-05T08:29:23.812Z,22.79
2019-05-05T08:32:00.502Z,22.81
2019-05-05T08:34:29.900Z,21.58
2019-05-05T08:36:59.937Z,21.69
2019-05-05T08:39:29.387Z,20.30
2019-05-05T08:41:58.831Z,20.30
2019-05-05T08:44:28.163Z,20.42
2019-05-05T08:46:57.672Z,20.64
2019-05-05T08:49:27.274Z,19.93
2019-05-05T08:51:56.694Z,19.53
2019-05-05T08:54:26.040Z,18.32
2019-05-05T08:56:55.592Z,17.58
2019-05-05T08:59:25.178Z,17.79
2019-05-05T09:01:54.437Z,18.26
2019-05-05T09:04:24.710Z,18.89
2019-05-05T09:06:54.428Z,16.65
2019-05-05T09:09:24.245Z,17.85
2019-05-05T09:11:54.281Z,20.63
2019-05-05T09:14:24.064Z,23.00
2019-05-05T09:16:53.771Z,23.50
2019-05-05T09:19:24.119Z,23.74
2019-05-05T09:21:54.131Z,22.01
2019-05-05T09:24:45.622Z,20.80
2019-05-05T09:27:44.272Z,19.26
2019-05-05T09:30:15.576Z,18.69
2019-05-05T09:32:44.961Z,18.80
2019-05-05T09:35:14.303Z,19.25
2019-05-05T09:37:44.406Z,19.83
2019-05-05T09:40:16.142Z,18.85
2019-05-05T09:42:45.485Z,21.03
2019-05-05T09:45:15.029Z,24.58
2019-05-05T09:47:45.006Z,22.54
2019-05-05T09:50:15.550Z,20.58
2019-05-05T09:52:44.835Z,18.56
2019-05-05T09:55:14.168Z,17.65
2019-05-05T09:57:43.951Z,18.54
2019-05-05T10:00:14.325Z,18.52
2019-05-05T10:02:44.279Z,16.84
2019-05-05T10:05:14.524Z,17.53
2019-05-05T10:07:44.192Z,17.73
2019-05-05T10:10:14.425Z,18.21
2019-05-05T10:12:44.546Z,21.89
2019-05-05T10:15:14.367Z,22.82
2019-05-05T10:17:44.165Z,23.98
2019-05-05T10:20:14.533Z,24.52
2019-05-05T10:22:43.981Z,25.28
2019-05-05T10:25:36.454Z,26.76
2019-05-05T10:28:05.827Z,23.33
2019-05-05T10:30:35.350Z,20.17
2019-05-05T10:33:04.822Z,20.90
2019-05-05T10:35:34.548Z,18.89
2019-05-05T10:38:03.971Z,19.06
2019-05-05T10:40:34.855Z,20.50
2019-05-05T10:43:04.765Z,22.29
2019-05-05T10:45:34.337Z,20.14
2019-05-05T10:48:04.239Z,18.93
2019-05-05T10:50:34.192Z,19.31
2019-05-05T10:53:04.551Z,17.53
2019-05-05T10:55:34.888Z,16.78
2019-05-05T10:58:04.486Z,15.80
2019-05-05T11:00:44.348Z,16.50
2019-05-05T11:03:14.852Z,16.55
2019-05-05T11:05:45.136Z,16.14
2019-05-05T11:08:14.602Z,16.75
2019-05-05T11:10:44.998Z,17.04
2019-05-05T11:13:14.630Z,17.84
2019-05-05T11:15:44.472Z,17.49
2019-05-05T11:18:14.690Z,18.51
2019-05-05T11:20:44.875Z,19.95
2019-05-05T11:23:15.116Z,21.57
2019-05-05T11:25:44.736Z,22.47
2019-05-05T11:28:14.324Z,25.62
2019-05-05T11:30:45.221Z,25.02
2019-05-05T11:33:37.939Z,26.17
2019-05-05T11:36:19.338Z,27.79
2019-05-05T11:38:48.839Z,27.13
2019-05-05T11:41:18.154Z,29.35
2019-05-05T11:43:47.448Z,29.58
2019-05-05T11:46:16.934Z,30.31
2019-05-05T11:48:46.240Z,31.30
2019-05-05T11:51:15.518Z,28.93
2019-05-05T11:53:44.995Z,30.07
2019-05-05T11:56:14.568Z,29.90
2019-05-05T11:58:44.348Z,31.50
2019-05-05T12:01:14.154Z,29.33
2019-05-05T12:03:44.435Z,29.78
2019-05-05T12:06:14.727Z,31.02
2019-05-05T12:08:45.846Z,30.67
2019-05-05T12:11:15.530Z,30.84
2019-05-05T12:13:44.926Z,31.88
2019-05-05T12:16:16.065Z,32.64
2019-05-05T12:18:45.360Z,32.15
2019-05-05T12:21:14.708Z,33.36
2019-05-05T12:23:44.600Z,30.74
2019-05-05T12:26:35.757Z,29.91
2019-05-05T12:29:14.310Z,31.88
2019-05-05T12:31:48.727Z,30.72
2019-05-05T12:34:18.099Z,28.89
2019-05-05T12:36:47.426Z,32.55
2019-05-05T12:39:16.886Z,32.17
2019-05-05T12:41:46.208Z,31.25
2019-05-05T12:44:23.649Z,31.60
2019-05-05T12:47:10.810Z,29.83
2019-05-05T12:49:40.220Z,31.17
2019-05-05T12:52:09.537Z,31.50
2019-05-05T12:54:38.938Z,30.79
2019-05-05T12:57:08.480Z,31.21
2019-05-05T12:59:37.828Z,32.04
2019-05-05T13:02:07.554Z,31.19
2019-05-05T13:04:36.804Z,31.89
2019-05-05T13:07:08.319Z,34.11
2019-05-05T13:09:37.202Z,33.67
2019-05-05T13:12:06.559Z,32.91
2019-05-05T13:14:35.820Z,31.70
2019-05-05T13:17:05.218Z,31.74
2019-05-05T13:19:56.133Z,31.36
2019-05-05T13:22:44.317Z,31.83
2019-05-05T13:25:26.776Z,29.65
2019-05-05T13:27:57.429Z,31.81
2019-05-05T13:30:26.814Z,33.21
2019-05-05T13:32:56.263Z,33.92
2019-05-05T13:35:25.577Z,32.58
2019-05-05T13:37:55.060Z,33.05
2019-05-05T13:40:24.439Z,32.98
2019-05-05T13:42:54.807Z,32.67
2019-05-05T13:45:34.286Z,32.45
2019-05-05T13:48:03.680Z,32.97
2019-05-05T13:50:36.422Z,35.19
2019-05-05T13:53:05.787Z,33.75
2019-05-05T13:55:35.097Z,33.53
2019-05-05T13:58:04.629Z,34.52
2019-05-05T14:00:34.019Z,35.54
2019-05-05T14:03:03.966Z,34.25
2019-05-05T14:05:34.386Z,34.40
2019-05-05T14:08:04.272Z,34.54
2019-05-05T14:10:33.656Z,32.87
2019-05-05T14:13:03.780Z,34.65
2019-05-05T14:15:34.114Z,35.63
2019-05-05T14:18:03.895Z,36.10
2019-05-05T14:20:34.494Z,35.10
2019-05-05T14:23:04.433Z,38.42
2019-05-05T14:25:34.077Z,37.57
2019-05-05T14:28:03.901Z,38.25
2019-05-05T14:30:51.111Z,35.67
2019-05-05T14:33:26.253Z,34.55
2019-05-05T14:36:24.422Z,36.00
2019-05-05T14:38:56.146Z,35.70
2019-05-05T14:41:25.712Z,35.75
2019-05-05T14:43:56.566Z,34.26
2019-05-05T14:46:26.150Z,35.54
2019-05-05T14:48:55.420Z,35.13
2019-05-05T14:51:24.744Z,33.91
2019-05-05T14:53:54.428Z,31.78
2019-05-05T14:56:35.735Z,31.62
2019-05-05T14:58:55.113Z,32.77
2019-05-05T15:01:24.833Z,33.33
2019-05-05T15:03:54.215Z,34.69
2019-05-05T15:06:31.565Z,34.92
2019-05-05T15:09:07.130Z,36.37
2019-05-05T15:11:58.688Z,36.35
2019-05-05T15:14:28.083Z,36.19
2019-05-05T15:16:57.502Z,36.52
2019-05-05T15:19:27.148Z,38.21
2019-05-05T15:21:56.389Z,37.58
2019-05-05T15:24:25.712Z,37.46
2019-05-05T15:26:55.306Z,39.63
2019-05-05T15:29:25.156Z,39.97
2019-05-05T15:31:54.952Z,42.33
2019-05-05T15:34:24.556Z,43.06
2019-05-05T15:36:54.628Z,44.68
2019-05-05T15:39:24.678Z,47.11
2019-05-05T15:41:54.478Z,46.05
2019-05-05T15:44:24.282Z,47.93
2019-05-05T15:46:57.355Z,47.69
2019-05-05T15:49:24.875Z,49.14
2019-05-05T15:51:54.222Z,49.33
2019-05-05T15:54:23.761Z,47.53
2019-05-05T15:57:04.948Z,47.45
2019-05-05T15:59:24.327Z,49.25
2019-05-05T16:01:54.919Z,49.75
2019-05-05T16:04:24.431Z,56.53
2019-05-05T16:06:54.213Z,60.97
2019-05-05T16:09:23.606Z,62.41
2019-05-05T16:11:54.566Z,63.56
2019-05-05T16:14:24.508Z,64.87
2019-05-05T16:17:06.572Z,64.62
2019-05-05T16:19:54.851Z,63.04
2019-05-05T16:22:34.684Z,60.63
2019-05-05T16:25:14.276Z,56.63
2019-05-05T16:27:44.820Z,54.52
2019-05-05T16:30:14.853Z,58.27
2019-05-05T16:32:44.130Z,58.81
2019-05-05T16:35:15.149Z,56.28
2019-05-05T16:37:44.392Z,56.58
2019-05-05T16:40:14.543Z,59.50
2019-05-05T16:42:44.105Z,64.04
2019-05-05T16:45:16.281Z,63.23
2019-05-05T16:47:45.225Z,64.70
2019-05-05T16:50:14.696Z,65.13
2019-05-05T16:52:54.480Z,64.62
2019-05-05T16:55:34.490Z,65.06
2019-05-05T16:58:06.542Z,62.67
2019-05-05T17:00:35.923Z,63.52
2019-05-05T17:03:05.513Z,61.85
2019-05-05T17:05:34.865Z,63.98
2019-05-05T17:08:04.586Z,63.68
2019-05-05T17:10:34.358Z,63.51
2019-05-05T17:13:24.037Z,61.16
2019-05-05T17:16:04.952Z,63.22
2019-05-05T17:18:46.218Z,61.70
2019-05-05T17:21:19.686Z,59.88
2019-05-05T17:23:48.979Z,59.90
2019-05-05T17:26:18.281Z,59.25
2019-05-05T17:28:47.740Z,58.82
2019-05-05T17:31:17.095Z,59.72
2019-05-05T17:33:46.500Z,60.62
2019-05-05T17:36:16.004Z,60.76
2019-05-05T17:38:45.339Z,61.42
2019-05-05T17:41:34.122Z,61.73
2019-05-05T17:44:07.512Z,63.29
2019-05-05T17:46:46.935Z,63.18
2019-05-05T17:49:26.861Z,63.12
2019-05-05T17:52:03.709Z,62.05
2019-05-05T17:54:39.666Z,62.65
2019-05-05T17:57:09.496Z,63.72
2019-05-05T17:59:38.842Z,63.98
2019-05-05T18:02:08.201Z,64.90
2019-05-05T18:04:38.227Z,64.76
2019-05-05T18:07:17.972Z,66.00
2019-05-05T18:10:04.593Z,65.86
2019-05-05T18:12:58.932Z,65.51
2019-05-05T18:15:48.229Z,66.35
2019-05-05T18:18:16.805Z,66.43
2019-05-05T18:20:46.113Z,67.18
2019-05-05T18:23:15.716Z,67.46
2019-05-05T18:25:45.214Z,68.11
2019-05-05T18:28:19.741Z,67.67
2019-05-05T18:30:45.599Z,67.80
2019-05-05T18:33:14.901Z,67.20
2019-05-05T18:35:44.562Z,66.91
2019-05-05T18:38:13.998Z,68.14
2019-05-05T18:40:44.025Z,68.36
2019-05-05T18:43:21.933Z,68.64
2019-05-05T18:46:01.413Z,67.96
2019-05-05T18:48:31.155Z,67.20
2019-05-05T18:51:00.584Z,67.74
2019-05-05T18:53:29.948Z,67.64
2019-05-05T18:55:59.333Z,69.52
2019-05-05T18:58:30.336Z,69.75
2019-05-05T19:01:08.265Z,70.71
2019-05-05T19:03:56.533Z,71.50
2019-05-05T19:06:45.101Z,70.57
2019-05-05T19:09:18.253Z,71.30
2019-05-05T19:11:47.949Z,71.05
2019-05-05T19:14:17.352Z,71.86
2019-05-05T19:16:46.620Z,72.42
2019-05-05T19:19:16.128Z,72.75
2019-05-05T19:21:50.066Z,73.35
2019-05-05T19:24:19.535Z,73.37
2019-05-05T19:26:48.828Z,74.40
2019-05-05T19:29:18.234Z,74.42
2019-05-05T19:31:47.760Z,75.07
2019-05-05T19:34:17.074Z,75.33
2019-05-05T19:36:46.353Z,76.44
2019-05-05T19:39:15.899Z,76.11
2019-05-05T19:41:47.139Z,75.96
2019-05-05T19:44:16.249Z,76.42
2019-05-05T19:46:54.845Z,76.54
2019-05-05T19:49:24.287Z,77.03
2019-05-05T19:51:54.249Z,77.70
2019-05-05T19:54:23.649Z,78.17
2019-05-05T19:56:54.272Z,78.53
2019-05-05T19:59:23.677Z,78.58
2019-05-05T20:01:54.042Z,79.18
2019-05-05T20:04:24.088Z,79.00
2019-05-05T20:06:54.814Z,79.36
2019-05-05T20:09:24.811Z,79.76
2019-05-05T20:11:54.603Z,80.03
2019-05-05T20:14:24.784Z,80.20
2019-05-05T20:17:14.768Z,80.59
2019-05-05T20:19:45.908Z,81.23
2019-05-05T20:22:15.551Z,81.96
2019-05-05T20:24:44.903Z,81.65
2019-05-05T20:27:15.019Z,81.63
2019-05-05T20:29:44.493Z,81.91
2019-05-05T20:32:14.818Z,82.32
2019-05-05T20:35:04.939Z,82.49
2019-05-05T20:37:45.101Z,82.56
2019-05-05T20:40:16.438Z,83.04
2019-05-05T20:42:45.806Z,83.47
2019-05-05T20:45:19.238Z,83.09
2019-05-05T20:47:48.499Z,82.86
2019-05-05T20:50:17.752Z,82.85
2019-05-05T20:52:47.255Z,82.75
2019-05-05T20:55:16.579Z,82.71
2019-05-05T20:57:46.012Z,82.46
2019-05-05T21:00:17.696Z,82.00
2019-05-05T21:02:47.064Z,81.76
2019-05-05T21:05:16.400Z,81.42
2019-05-05T21:07:45.712Z,81.11
2019-05-05T21:10:14.999Z,80.86
2019-05-05T21:12:45.637Z,80.17
2019-05-05T21:15:16.206Z,80.00
2019-05-05T21:17:45.511Z,79.87
2019-05-05T21:20:14.924Z,79.55
2019-05-05T21:22:56.184Z,79.75
2019-05-05T21:25:36.887Z,79.91
2019-05-05T21:28:06.408Z,80.28
2019-05-05T21:30:35.740Z,80.23
2019-05-05T21:33:05.101Z,79.90
2019-05-05T21:35:35.006Z,80.00
2019-05-05T21:38:04.855Z,79.97
2019-05-05T21:40:34.737Z,79.70
2019-05-05T21:43:04.923Z,79.65
2019-05-05T21:45:34.889Z,79.45
2019-05-05T21:48:04.536Z,79.79
2019-05-05T21:50:39.306Z,79.67
2019-05-05T21:53:14.108Z,79.94
2019-05-05T21:55:53.190Z,79.83
2019-05-05T21:58:25.483Z,79.44
2019-05-05T22:01:14.674Z,79.25
2019-05-05T22:03:44.355Z,79.40
2019-05-05T22:06:14.583Z,79.84
2019-05-05T22:08:44.144Z,79.90
2019-05-05T22:11:14.644Z,79.84
2019-05-05T22:13:44.577Z,79.42
2019-05-05T22:16:13.938Z,78.02
2019-05-05T22:18:44.675Z,79.36
2019-05-05T22:21:20.711Z,80.62
2019-05-05T22:24:07.556Z,81.22
2019-05-05T22:26:37.083Z,81.58
2019-05-05T22:29:06.547Z,81.97
2019-05-05T22:31:35.938Z,82.06
2019-05-05T22:34:06.111Z,81.96
2019-05-05T22:36:35.770Z,82.65
2019-05-05T22:39:08.078Z,82.13
2019-05-05T22:41:37.807Z,81.91
2019-05-05T22:44:07.232Z,82.25
2019-05-05T22:46:36.897Z,82.61
2019-05-05T22:49:06.225Z,82.34
2019-05-05T22:51:35.501Z,82.17
2019-05-05T22:54:05.264Z,82.17
2019-05-05T22:56:34.562Z,81.76
2019-05-05T22:59:04.470Z,81.84
2019-05-05T23:01:34.111Z,81.90
2019-05-05T23:04:25.476Z,82.03
2019-05-05T23:06:59.044Z,82.21
2019-05-05T23:09:28.356Z,82.57
2019-05-05T23:11:57.642Z,82.26
2019-05-05T23:14:30.027Z,82.44
2019-05-05T23:17:18.774Z,82.31
2019-05-05T23:19:54.544Z,82.55
2019-05-05T23:22:30.906Z,82.44
2019-05-05T23:25:05.104Z,82.81
2019-05-05T23:27:54.739Z,83.19
2019-05-05T23:30:37.856Z,83.18
2019-05-05T23:32:55.426Z,83.43
2019-05-05T23:35:24.859Z,83.42
2019-05-05T23:37:55.236Z,83.18
2019-05-05T23:40:25.854Z,82.45
2019-05-05T23:42:55.233Z,82.81
2019-05-05T23:45:25.074Z,83.40
2019-05-05T23:47:54.871Z,83.30
2019-05-05T23:50:24.212Z,83.55
2019-05-05T23:52:54.401Z,83.53
2019-05-05T23:55:24.264Z,83.38
2019-05-05T23:57:54.688Z,83.50
